Atlantis — PCDT — position and weather

sailwx.info

Track history (hours):
 
Tides and Currents Weather Stations Pressure Air Temp Water Temp Dewpoint Dewpoint Depression Visibility Wind Speed Wind Dir Waves Ship Positions

Atlantis (Netherlands)

Ship's website: http://www.tallship-company.com/artemis/gb_atlantis.htm

Last reported at 2014-Sep-16 02:33 UTC. Time now 2014-Sep-16 11:34 UTC.
Position N 38°41' E 001°31'.

Length 40 m; draft 4.5 m.

Type: Sailing vessel. MMSI: 246253000.

Date/timePositionNaut miles runAvg speedWind from/ knotsBaromVisibWave heightAir tempDewpointWater temp
2014-Sep-16 02:33N 38°41' E 001°31'7 0.4
2014-Sep-15 07:26N 38°45' E 001°24'9 0.2
2014-Sep-13 15:11N 38°55' E 001°26'0 0.0
2014-Sep-13 14:27N 38°55' E 001°26'0 0.0
2014-Sep-13 12:29N 38°55' E 001°26'0 0.0
2014-Sep-13 11:33N 38°55' E 001°26'0 0.0
2014-Sep-13 05:33N 38°55' E 001°26'0 0.0
2014-Sep-13 04:12N 38°55' E 001°26'0 0.0
2014-Sep-12 21:28N 38°55' E 001°26'0 0.0
2014-Sep-12 20:33N 38°55' E 001°26'0 0.0
2014-Sep-12 19:21N 38°55' E 001°26'2 0.4
2014-Sep-12 15:33N 38°53' E 001°27'5 5.1
2014-Sep-12 14:33N 38°50' E 001°22'7 0.4
2014-Sep-11 20:32N 38°53' E 001°13'0 0.0
2014-Sep-11 19:32N 38°53' E 001°13'0 0.0
2014-Sep-11 18:33N 38°53' E 001°13'2 2.4
2014-Sep-11 17:34N 38°51' E 001°14'7 6.6
2014-Sep-11 16:33N 38°47' E 001°21'5 4.1
2014-Sep-11 15:28N 38°44' E 001°25'0 0.0
2014-Sep-11 14:33N 38°44' E 001°25'0 0.0
2014-Sep-11 13:33N 38°44' E 001°25'2 1.7
2014-Sep-11 12:32N 38°46' E 001°25'2 2.4
2014-Sep-11 11:33N 38°48' E 001°26'5 5.3
2014-Sep-11 10:33N 38°44' E 001°30'3 2.7
2014-Sep-11 09:23N 38°41' E 001°31'0 0.0
2014-Sep-11 07:28N 38°41' E 001°31'0 0.0
2014-Sep-11 06:24N 38°41' E 001°31'0 0.0
2014-Sep-11 05:32N 38°41' E 001°31'0 0.0
2014-Sep-11 04:29N 38°41' E 001°31'0 0.0
2014-Sep-11 03:33N 38°41' E 001°31'0 0.0
2014-Sep-11 02:29N 38°41' E 001°31'0 0.0
2014-Sep-11 01:29N 38°41' E 001°31'0 0.0
2014-Sep-11 00:24N 38°41' E 001°31'0 0.0
2014-Sep-10 23:33N 38°41' E 001°31'0 0.0
2014-Sep-10 22:26N 38°41' E 001°31'0 0.0
2014-Sep-10 21:30N 38°41' E 001°31'0 0.0
2014-Sep-10 20:28N 38°41' E 001°31'0 0.0
2014-Sep-10 19:28N 38°41' E 001°31'0 0.0
2014-Sep-10 18:12N 38°41' E 001°31'4 6.5
2014-Sep-10 17:32N 38°45' E 001°33'7 7.3
2014-Sep-10 16:32N 38°52' E 001°34'6 6.4
2014-Sep-10 15:33N 38°58' E 001°35'1 1.5
2014-Sep-10 14:33N 38°60' E 001°35'0 0.0
2014-Sep-10 13:33N 38°60' E 001°35'0 0.0
2014-Sep-10 12:33N 38°60' E 001°35'0 0.0
2014-Sep-10 11:33N 38°60' E 001°35'0 0.4
2014-Sep-10 10:33N 39°00' E 001°35'4 3.8
2014-Sep-10 09:33N 39°04' E 001°38'6 5.9
2014-Sep-10 08:33N 39°08' E 001°32'5 5.1
2014-Sep-10 07:33N 39°05' E 001°26'0 0.0
2014-Sep-10 06:33N 39°05' E 001°26'0 0.0
2014-Sep-10 05:33N 39°05' E 001°26'0 0.0
2014-Sep-10 04:33N 39°05' E 001°26'0 0.0
2014-Sep-10 03:33N 39°05' E 001°26'0 0.0
2014-Sep-10 02:28N 39°05' E 001°26'0 0.0
2014-Sep-10 01:33N 39°05' E 001°26'0 0.0
2014-Sep-10 00:32N 39°05' E 001°26'0 0.0
2014-Sep-09 23:33N 39°05' E 001°26'0 0.0
2014-Sep-09 22:30N 39°05' E 001°26'0 0.0
2014-Sep-09 21:20N 39°05' E 001°26'0 0.0
2014-Sep-09 20:21N 39°05' E 001°26'0 0.0
2014-Sep-09 19:32N 39°05' E 001°26'0 0.0
2014-Sep-09 18:31N 39°05' E 001°26'0 0.0
2014-Sep-09 17:31N 39°05' E 001°26'0 0.0
2014-Sep-09 16:26N 39°05' E 001°26'0 0.0
2014-Sep-09 15:29N 39°05' E 001°26'1 1.5
2014-Sep-09 14:33N 39°06' E 001°27'6 5.3
2014-Sep-09 13:25N 39°10' E 001°33'5 4.9
2014-Sep-09 12:29N 39°13' E 001°38'4 4.7
2014-Sep-09 11:33N 39°16' E 001°42'5 4.7
2014-Sep-09 10:33N 39°18' E 001°47'5 4.7
2014-Sep-09 09:33N 39°20' E 001°53'5 4.8
2014-Sep-09 08:33N 39°23' E 001°58'6 5.6
2014-Sep-09 07:33N 39°25' E 002°04'4 3.5
2014-Sep-09 06:33N 39°27' E 002°09'5 4.6
2014-Sep-09 05:33N 39°29' E 002°14'7 6.6
2014-Sep-09 04:31N 39°32' E 002°21'1 0.7
2014-Sep-09 03:33N 39°32' E 002°22'0 0.0
2014-Sep-09 02:33N 39°32' E 002°22'0 0.0
2014-Sep-09 01:33N 39°32' E 002°22'0 0.0
2014-Sep-09 00:33N 39°32' E 002°22'0 0.0
2014-Sep-08 23:29N 39°32' E 002°22'0 0.0
2014-Sep-08 22:33N 39°32' E 002°22'0 0.0
2014-Sep-08 21:29N 39°32' E 002°22'0 0.0
2014-Sep-08 20:33N 39°32' E 002°22'0 0.0
2014-Sep-08 19:33N 39°32' E 002°22'0 0.0
2014-Sep-08 18:33N 39°32' E 002°22'3 1.2
2014-Sep-08 16:25N 39°35' E 002°21'3 0.4
2014-Sep-08 10:04N 39°32' E 002°22'0 0.0
2014-Sep-08 08:30N 39°32' E 002°22'0 0.0
2014-Sep-08 06:12N 39°32' E 002°22'0 0.0
2014-Sep-08 05:30N 39°32' E 002°22'0 0.0
2014-Sep-08 04:24N 39°32' E 002°22'0 0.0
2014-Sep-07 23:30N 39°32' E 002°22'0 0.0
2014-Sep-07 21:12N 39°32' E 002°22'0 0.0
2014-Sep-07 20:30N 39°32' E 002°22'2 2.2
2014-Sep-07 19:29N 39°34' E 002°20'6 5.9
2014-Sep-07 18:27N 39°39' E 002°25'4 4.8
2014-Sep-07 17:33N 39°42' E 002°30'3 2.8
2014-Sep-07 16:31N 39°42' E 002°33'0 0.0
2014-Sep-07 15:21N 39°42' E 002°33'0 0.0
2014-Sep-07 14:32N 39°42' E 002°33'0 0.0
2014-Sep-07 13:30N 39°42' E 002°33'3 3.7
2014-Sep-07 12:33N 39°45' E 002°36'5 5.0
2014-Sep-07 11:33N 39°48' E 002°42'0 0.0
2014-Sep-07 10:33N 39°48' E 002°42'0 0.0
2014-Sep-07 09:33N 39°48' E 002°42'0 0.0
2014-Sep-07 08:33N 39°48' E 002°42'0 0.0
2014-Sep-07 07:33N 39°48' E 002°42'0 0.0
2014-Sep-07 06:33N 39°48' E 002°42'0 0.0
2014-Sep-07 05:33N 39°48' E 002°42'0 0.0
2014-Sep-07 04:33N 39°48' E 002°42'0 0.0
2014-Sep-07 03:34N 39°48' E 002°42'0 0.0
2014-Sep-07 02:33N 39°48' E 002°42'0 0.0
2014-Sep-07 01:33N 39°48' E 002°42'0 0.0
2014-Sep-07 00:33N 39°48' E 002°42'0 0.0
2014-Sep-06 23:33N 39°48' E 002°42'0 0.0
2014-Sep-06 22:33N 39°48' E 002°42'0 0.0
2014-Sep-06 21:33N 39°48' E 002°42'0 0.0
2014-Sep-06 20:33N 39°48' E 002°42'0 0.0
2014-Sep-06 19:33N 39°48' E 002°42'0 0.0
2014-Sep-06 18:34N 39°48' E 002°42'0 0.0
2014-Sep-06 17:33N 39°48' E 002°42'0 0.0
2014-Sep-06 16:30N 39°48' E 002°42'0 0.0
2014-Sep-06 15:33N 39°48' E 002°42'0 0.0
2014-Sep-06 14:33N 39°48' E 002°42'0 0.0
2014-Sep-06 13:34N 39°48' E 002°42'0 0.0
2014-Sep-06 12:33N 39°48' E 002°42'0 0.0
2014-Sep-06 11:33N 39°48' E 002°42'0 0.0
2014-Sep-06 10:33N 39°48' E 002°42'0 0.0
2014-Sep-06 09:33N 39°48' E 002°42'0 0.0
2014-Sep-06 08:26N 39°48' E 002°42'0 0.0
2014-Sep-06 07:25N 39°48' E 002°42'0 0.0
2014-Sep-06 06:34N 39°48' E 002°42'  
Track history (hours):
 
Tides and Currents Weather Stations Pressure Air Temp Water Temp Dewpoint Dewpoint Depression Visibility Wind Speed Wind Dir Waves Ship Positions

Atlantis (Netherlands)

Ship's website: http://www.tallship-company.com/artemis/gb_atlantis.htm

Last reported at 2014-Sep-16 02:33 UTC. Time now 2014-Sep-16 11:34 UTC.
Position N 38°41' E 001°31'.

Length 40 m; draft 4.5 m.

Type: Sailing vessel. MMSI: 246253000.

Date/timePositionNaut miles runAvg speedWind from/ knotsBaromVisibWave heightAir tempDewpointWater temp
2014-Sep-16 02:33N 38°41' E 001°31'7 0.4
2014-Sep-15 07:26N 38°45' E 001°24'9 0.2
2014-Sep-13 15:11N 38°55' E 001°26'0 0.0
2014-Sep-13 14:27N 38°55' E 001°26'0 0.0
2014-Sep-13 12:29N 38°55' E 001°26'0 0.0
2014-Sep-13 11:33N 38°55' E 001°26'0 0.0
2014-Sep-13 05:33N 38°55' E 001°26'0 0.0
2014-Sep-13 04:12N 38°55' E 001°26'0 0.0
2014-Sep-12 21:28N 38°55' E 001°26'0 0.0
2014-Sep-12 20:33N 38°55' E 001°26'0 0.0
2014-Sep-12 19:21N 38°55' E 001°26'2 0.4
2014-Sep-12 15:33N 38°53' E 001°27'5 5.1
2014-Sep-12 14:33N 38°50' E 001°22'7 0.4
2014-Sep-11 20:32N 38°53' E 001°13'0 0.0
2014-Sep-11 19:32N 38°53' E 001°13'0 0.0
2014-Sep-11 18:33N 38°53' E 001°13'2 2.4
2014-Sep-11 17:34N 38°51' E 001°14'7 6.6
2014-Sep-11 16:33N 38°47' E 001°21'5 4.1
2014-Sep-11 15:28N 38°44' E 001°25'0 0.0
2014-Sep-11 14:33N 38°44' E 001°25'0 0.0
2014-Sep-11 13:33N 38°44' E 001°25'2 1.7
2014-Sep-11 12:32N 38°46' E 001°25'2 2.4
2014-Sep-11 11:33N 38°48' E 001°26'5 5.3
2014-Sep-11 10:33N 38°44' E 001°30'3 2.7
2014-Sep-11 09:23N 38°41' E 001°31'0 0.0
2014-Sep-11 07:28N 38°41' E 001°31'0 0.0
2014-Sep-11 06:24N 38°41' E 001°31'0 0.0
2014-Sep-11 05:32N 38°41' E 001°31'0 0.0
2014-Sep-11 04:29N 38°41' E 001°31'0 0.0
2014-Sep-11 03:33N 38°41' E 001°31'0 0.0
2014-Sep-11 02:29N 38°41' E 001°31'0 0.0
2014-Sep-11 01:29N 38°41' E 001°31'0 0.0
2014-Sep-11 00:24N 38°41' E 001°31'0 0.0
2014-Sep-10 23:33N 38°41' E 001°31'0 0.0
2014-Sep-10 22:26N 38°41' E 001°31'0 0.0
2014-Sep-10 21:30N 38°41' E 001°31'0 0.0
2014-Sep-10 20:28N 38°41' E 001°31'0 0.0
2014-Sep-10 19:28N 38°41' E 001°31'0 0.0
2014-Sep-10 18:12N 38°41' E 001°31'4 6.5
2014-Sep-10 17:32N 38°45' E 001°33'7 7.3
2014-Sep-10 16:32N 38°52' E 001°34'6 6.4
2014-Sep-10 15:33N 38°58' E 001°35'1 1.5
2014-Sep-10 14:33N 38°60' E 001°35'0 0.0
2014-Sep-10 13:33N 38°60' E 001°35'0 0.0
2014-Sep-10 12:33N 38°60' E 001°35'0 0.0
2014-Sep-10 11:33N 38°60' E 001°35'0 0.4
2014-Sep-10 10:33N 39°00' E 001°35'4 3.8
2014-Sep-10 09:33N 39°04' E 001°38'6 5.9
2014-Sep-10 08:33N 39°08' E 001°32'5 5.1
2014-Sep-10 07:33N 39°05' E 001°26'0 0.0
2014-Sep-10 06:33N 39°05' E 001°26'0 0.0
2014-Sep-10 05:33N 39°05' E 001°26'0 0.0
2014-Sep-10 04:33N 39°05' E 001°26'0 0.0
2014-Sep-10 03:33N 39°05' E 001°26'0 0.0
2014-Sep-10 02:28N 39°05' E 001°26'0 0.0
2014-Sep-10 01:33N 39°05' E 001°26'0 0.0
2014-Sep-10 00:32N 39°05' E 001°26'0 0.0
2014-Sep-09 23:33N 39°05' E 001°26'0 0.0
2014-Sep-09 22:30N 39°05' E 001°26'0 0.0
2014-Sep-09 21:20N 39°05' E 001°26'0 0.0
2014-Sep-09 20:21N 39°05' E 001°26'0 0.0
2014-Sep-09 19:32N 39°05' E 001°26'0 0.0
2014-Sep-09 18:31N 39°05' E 001°26'0 0.0
2014-Sep-09 17:31N 39°05' E 001°26'0 0.0
2014-Sep-09 16:26N 39°05' E 001°26'0 0.0
2014-Sep-09 15:29N 39°05' E 001°26'1 1.5
2014-Sep-09 14:33N 39°06' E 001°27'6 5.3
2014-Sep-09 13:25N 39°10' E 001°33'5 4.9
2014-Sep-09 12:29N 39°13' E 001°38'4 4.7
2014-Sep-09 11:33N 39°16' E 001°42'5 4.7
2014-Sep-09 10:33N 39°18' E 001°47'5 4.7
2014-Sep-09 09:33N 39°20' E 001°53'5 4.8
2014-Sep-09 08:33N 39°23' E 001°58'6 5.6
2014-Sep-09 07:33N 39°25' E 002°04'4 3.5
2014-Sep-09 06:33N 39°27' E 002°09'5 4.6
2014-Sep-09 05:33N 39°29' E 002°14'7 6.6
2014-Sep-09 04:31N 39°32' E 002°21'1 0.7
2014-Sep-09 03:33N 39°32' E 002°22'0 0.0
2014-Sep-09 02:33N 39°32' E 002°22'0 0.0
2014-Sep-09 01:33N 39°32' E 002°22'0 0.0
2014-Sep-09 00:33N 39°32' E 002°22'0 0.0
2014-Sep-08 23:29N 39°32' E 002°22'0 0.0
2014-Sep-08 22:33N 39°32' E 002°22'0 0.0
2014-Sep-08 21:29N 39°32' E 002°22'0 0.0
2014-Sep-08 20:33N 39°32' E 002°22'0 0.0
2014-Sep-08 19:33N 39°32' E 002°22'0 0.0
2014-Sep-08 18:33N 39°32' E 002°22'3 1.2
2014-Sep-08 16:25N 39°35' E 002°21'3 0.4
2014-Sep-08 10:04N 39°32' E 002°22'0 0.0
2014-Sep-08 08:30N 39°32' E 002°22'0 0.0
2014-Sep-08 06:12N 39°32' E 002°22'0 0.0
2014-Sep-08 05:30N 39°32' E 002°22'0 0.0
2014-Sep-08 04:24N 39°32' E 002°22'0 0.0
2014-Sep-07 23:30N 39°32' E 002°22'0 0.0
2014-Sep-07 21:12N 39°32' E 002°22'0 0.0
2014-Sep-07 20:30N 39°32' E 002°22'2 2.2
2014-Sep-07 19:29N 39°34' E 002°20'6 5.9
2014-Sep-07 18:27N 39°39' E 002°25'4 4.8
2014-Sep-07 17:33N 39°42' E 002°30'3 2.8
2014-Sep-07 16:31N 39°42' E 002°33'0 0.0
2014-Sep-07 15:21N 39°42' E 002°33'0 0.0
2014-Sep-07 14:32N 39°42' E 002°33'0 0.0
2014-Sep-07 13:30N 39°42' E 002°33'3 3.7
2014-Sep-07 12:33N 39°45' E 002°36'5 5.0
2014-Sep-07 11:33N 39°48' E 002°42'0 0.0
2014-Sep-07 10:33N 39°48' E 002°42'0 0.0
2014-Sep-07 09:33N 39°48' E 002°42'0 0.0
2014-Sep-07 08:33N 39°48' E 002°42'0 0.0
2014-Sep-07 07:33N 39°48' E 002°42'0 0.0
2014-Sep-07 06:33N 39°48' E 002°42'0 0.0
2014-Sep-07 05:33N 39°48' E 002°42'0 0.0
2014-Sep-07 04:33N 39°48' E 002°42'0 0.0
2014-Sep-07 03:34N 39°48' E 002°42'0 0.0
2014-Sep-07 02:33N 39°48' E 002°42'0 0.0
2014-Sep-07 01:33N 39°48' E 002°42'0 0.0
2014-Sep-07 00:33N 39°48' E 002°42'0 0.0
2014-Sep-06 23:33N 39°48' E 002°42'0 0.0
2014-Sep-06 22:33N 39°48' E 002°42'0 0.0
2014-Sep-06 21:33N 39°48' E 002°42'0 0.0
2014-Sep-06 20:33N 39°48' E 002°42'0 0.0
2014-Sep-06 19:33N 39°48' E 002°42'0 0.0
2014-Sep-06 18:34N 39°48' E 002°42'0 0.0
2014-Sep-06 17:33N 39°48' E 002°42'0 0.0
2014-Sep-06 16:30N 39°48' E 002°42'0 0.0
2014-Sep-06 15:33N 39°48' E 002°42'0 0.0
2014-Sep-06 14:33N 39°48' E 002°42'0 0.0
2014-Sep-06 13:34N 39°48' E 002°42'0 0.0
2014-Sep-06 12:33N 39°48' E 002°42'0 0.0
2014-Sep-06 11:33N 39°48' E 002°42'0 0.0
2014-Sep-06 10:33N 39°48' E 002°42'0 0.0
2014-Sep-06 09:33N 39°48' E 002°42'0 0.0
2014-Sep-06 08:26N 39°48' E 002°42'0 0.0
2014-Sep-06 07:25N 39°48' E 002°42'0 0.0
2014-Sep-06 06:34N 39°48' E 002°42'  

Dump ship's entire track history